Time;durP1;ratioP1;P1;durP2;ratioP2;P2;SDS_P1;SDS_P2;PMS_P1;PMS_P2;Temp;Humidity;BMP_temperature;BMP_pressure;BME280_temperature;BME280_humidity;BME280_pressure;Samples;Min_cycle;Max_cycle;Signal;HPM_P1;HPM_P2
2022/09/28 00:00:31;;;;;;;9.93;7.22;;;9.70;99.90;;;;;;5133194;27;20035;-67
2022/09/28 00:02:57;;;;;;;12.25;7.82;;;9.70;99.90;;;;;;5133227;27;20047;-67
2022/09/28 00:05:25;;;;;;;10.13;6.85;;;9.60;99.90;;;;;;5132819;27;20123;-66
2022/09/28 00:07:55;;;;;;;9.05;6.80;;;9.70;99.90;;;;;;5114640;27;20070;-67
2022/09/28 00:10:21;;;;;;;11.65;7.75;;;9.70;99.90;;;;;;5135509;27;20071;-66
2022/09/28 00:12:54;;;;;;;11.57;8.05;;;9.70;99.90;;;;;;5153972;27;20034;-67
2022/09/28 00:15:20;;;;;;;13.95;7.55;;;9.70;99.90;;;;;;5153488;27;20079;-67
2022/09/28 00:17:46;;;;;;;13.02;7.82;;;9.70;99.90;;;;;;5153722;27;20030;-66
2022/09/28 00:20:12;;;;;;;12.88;7.60;;;9.70;99.90;;;;;;5153638;27;20545;-66
2022/09/28 00:22:38;;;;;;;10.45;8.10;;;9.60;99.90;;;;;;5153803;27;20082;-66
2022/09/28 00:25:05;;;;;;;15.85;8.57;;;9.70;99.90;;;;;;5153432;27;20035;-66
2022/09/28 00:27:31;;;;;;;11.05;7.63;;;9.70;99.90;;;;;;5153725;27;20097;-66
2022/09/28 00:29:57;;;;;;;12.13;8.80;;;9.70;99.90;;;;;;5153664;27;20070;-66
2022/09/28 00:32:23;;;;;;;13.77;8.55;;;9.70;99.90;;;;;;5153425;27;20070;-67
2022/09/28 00:34:50;;;;;;;10.82;8.73;;;9.70;99.90;;;;;;5153404;27;20073;-66
2022/09/28 00:37:20;;;;;;;13.30;9.32;;;9.70;99.90;;;;;;5153567;27;20034;-67
2022/09/28 00:39:47;;;;;;;16.92;9.73;;;9.70;99.90;;;;;;5153359;27;20039;-67
2022/09/28 00:42:30;;;;;;;12.13;9.27;;;9.70;99.90;;;;;;5153479;27;20039;-67
2022/09/28 00:44:57;;;;;;;13.55;8.90;;;9.70;99.90;;;;;;5153299;27;20038;-66
2022/09/28 00:47:49;;;;;;;11.43;8.57;;;9.70;99.90;;;;;;5153540;27;20042;-66
2022/09/28 00:50:35;;;;;;;12.43;9.38;;;9.70;99.90;;;;;;5153599;27;20031;-67
2022/09/28 00:53:15;;;;;;;11.85;8.27;;;9.60;99.90;;;;;;5153208;27;20558;-66
2022/09/28 00:55:49;;;;;;;12.05;9.25;;;9.60;99.90;;;;;;5153251;27;20390;-66
2022/09/28 00:58:23;;;;;;;9.73;8.52;;;9.60;99.90;;;;;;5153283;27;20043;-66
2022/09/28 01:00:49;;;;;;;11.20;8.63;;;9.60;99.90;;;;;;5153308;27;20566;-66
2022/09/28 01:03:16;;;;;;;12.00;8.10;;;9.60;99.90;;;;;;5153078;27;20160;-67
2022/09/28 01:05:43;;;;;;;12.60;8.80;;;9.60;99.90;;;;;;5152800;27;20039;-66
2022/09/28 01:08:10;;;;;;;12.40;8.00;;;9.60;99.90;;;;;;5153021;27;20039;-66
2022/09/28 01:10:38;;;;;;;11.52;7.97;;;9.60;99.90;;;;;;5153147;27;20056;-66
2022/09/28 01:13:03;;;;;;;13.18;8.45;;;9.50;99.90;;;;;;5153156;27;20054;-67
2022/09/28 01:15:37;;;;;;;11.25;8.48;;;9.50;99.90;;;;;;5152728;27;20034;-67
2022/09/28 01:18:17;;;;;;;11.70;8.43;;;9.50;99.90;;;;;;5153005;27;20047;-66
2022/09/28 01:20:56;;;;;;;10.73;8.52;;;9.50;99.90;;;;;;5156130;27;20038;-66
2022/09/28 01:23:43;;;;;;;13.93;8.65;;;9.50;99.90;;;;;;5155966;27;20047;-66
2022/09/28 01:26:44;;;;;;;13.80;9.23;;;9.40;99.90;;;;;;5157102;27;20141;-66
2022/09/28 01:29:19;;;;;;;10.80;8.00;;;9.30;99.90;;;;;;5157169;27;20119;-66
2022/09/28 01:31:51;;;;;;;11.38;7.43;;;9.20;99.90;;;;;;5157011;27;20042;-66
2022/09/28 01:34:26;;;;;;;12.13;7.78;;;9.20;99.90;;;;;;5156611;27;20131;-66
2022/09/28 01:36:56;;;;;;;11.93;7.72;;;9.20;99.90;;;;;;5156893;27;20134;-66
2022/09/28 01:39:36;;;;;;;11.45;7.82;;;9.10;99.90;;;;;;5155721;27;20144;-66
2022/09/28 01:42:09;;;;;;;8.75;7.50;;;9.10;99.90;;;;;;5155549;27;20053;-66
2022/09/28 01:44:39;;;;;;;9.90;6.88;;;9.10;99.90;;;;;;5156386;27;20070;-66
2022/09/28 01:47:09;;;;;;;8.88;6.95;;;9.10;99.90;;;;;;5156704;27;20035;-66
2022/09/28 01:49:40;;;;;;;10.88;6.82;;;9.10;99.90;;;;;;5156712;27;20042;-66
2022/09/28 01:52:23;;;;;;;9.15;7.32;;;9.10;99.90;;;;;;5156871;27;20146;-67
2022/09/28 01:54:57;;;;;;;9.73;7.72;;;9.20;99.90;;;;;;5156307;27;20043;-66
2022/09/28 01:57:50;;;;;;;11.23;7.68;;;9.20;99.90;;;;;;5156636;27;20057;-66
2022/09/28 02:00:18;;;;;;;14.27;7.90;;;9.10;99.90;;;;;;5119868;27;20084;-67
2022/09/28 02:02:54;;;;;;;11.07;7.22;;;9.10;99.90;;;;;;5156482;27;20411;-67
2022/09/28 02:05:26;;;;;;;10.75;7.60;;;9.10;99.90;;;;;;5154632;27;20118;-66
2022/09/28 02:08:08;;;;;;;15.40;8.77;;;9.10;99.90;;;;;;5155019;27;20070;-67
2022/09/28 02:10:54;;;;;;;8.80;7.50;;;9.10;99.90;;;;;;5156141;27;20046;-67
2022/09/28 02:13:36;;;;;;;8.95;6.82;;;9.00;99.90;;;;;;5156358;27;20039;-66
2022/09/28 02:16:44;;;;;;;11.20;7.75;;;9.00;99.90;;;;;;5154714;27;20099;-67
2022/09/28 02:19:16;;;;;;;8.35;6.68;;;9.00;99.90;;;;;;5154607;27;20046;-66
2022/09/28 02:21:45;;;;;;;9.35;7.00;;;9.00;99.90;;;;;;5156176;27;20050;-67
2022/09/28 02:24:17;;;;;;;10.88;7.35;;;9.00;99.90;;;;;;5154179;27;20042;-67
2022/09/28 02:26:46;;;;;;;14.88;7.70;;;9.00;99.90;;;;;;5155896;27;20031;-67
2022/09/28 02:29:12;;;;;;;12.00;8.15;;;9.00;99.90;;;;;;5155735;27;20030;-66
2022/09/28 02:31:38;;;;;;;12.15;8.05;;;9.00;99.90;;;;;;5155924;27;20070;-67
2022/09/28 02:34:04;;;;;;;14.68;8.98;;;9.00;99.90;;;;;;5154336;27;20069;-67
2022/09/28 02:36:31;;;;;;;13.05;9.23;;;9.00;99.90;;;;;;5155639;27;20038;-67
2022/09/28 02:38:57;;;;;;;12.77;8.63;;;9.00;99.90;;;;;;5155699;27;20035;-66
2022/09/28 02:41:40;;;;;;;14.30;10.05;;;9.00;99.90;;;;;;5155476;27;20043;-66
2022/09/28 02:44:30;;;;;;;12.52;8.75;;;9.10;99.90;;;;;;5155370;27;20599;-66
2022/09/28 02:47:09;;;;;;;12.35;8.85;;;9.10;99.90;;;;;;5155548;27;20035;-67
2022/09/28 02:49:53;;;;;;;13.40;9.07;;;9.10;99.90;;;;;;5155395;27;20039;-67
2022/09/28 02:52:46;;;;;;;12.02;9.00;;;9.20;99.90;;;;;;5155688;27;20078;-66
2022/09/28 02:55:22;;;;;;;13.60;9.50;;;9.20;99.90;;;;;;5155023;27;20035;-66
2022/09/28 02:58:04;;;;;;;14.15;9.38;;;9.20;99.90;;;;;;5154244;27;20087;-66
2022/09/28 03:00:36;;;;;;;13.40;9.48;;;9.20;99.90;;;;;;5155079;27;20070;-66
2022/09/28 03:03:17;;;;;;;15.00;9.98;;;9.30;99.90;;;;;;5155389;27;20379;-66
2022/09/28 03:05:52;;;;;;;15.90;10.35;;;9.30;99.90;;;;;;5154820;27;20027;-66
2022/09/28 03:08:25;;;;;;;14.90;10.60;;;9.30;99.90;;;;;;5155060;27;20042;-66
2022/09/28 03:11:19;;;;;;;15.68;10.60;;;9.30;99.90;;;;;;5155197;27;20054;-66
2022/09/28 03:13:45;;;;;;;18.70;11.35;;;9.40;99.90;;;;;;5154867;27;20039;-66
2022/09/28 03:16:16;;;;;;;18.40;11.73;;;9.40;99.90;;;;;;5154486;27;20074;-66
2022/09/28 03:18:42;;;;;;;17.63;11.17;;;9.40;99.90;;;;;;5155056;27;20110;-66
2022/09/28 03:21:11;;;;;;;17.33;12.05;;;9.30;99.90;;;;;;5154843;27;20122;-67
2022/09/28 03:23:36;;;;;;;17.38;12.23;;;9.30;99.90;;;;;;5154955;27;20039;-67
2022/09/28 03:26:02;;;;;;;20.05;12.15;;;9.30;99.90;;;;;;5154551;27;20037;-67
2022/09/28 03:28:28;;;;;;;21.33;12.18;;;9.30;99.90;;;;;;5153395;27;20063;-66
2022/09/28 03:30:54;;;;;;;19.63;12.18;;;9.30;99.90;;;;;;5154736;27;20031;-66
2022/09/28 03:33:19;;;;;;;19.38;12.73;;;9.20;99.90;;;;;;5154663;27;20044;-66
2022/09/28 03:35:47;;;;;;;17.50;12.60;;;9.20;99.90;;;;;;5154165;27;20119;-66
2022/09/28 03:38:12;;;;;;;23.00;13.63;;;9.20;99.90;;;;;;5154391;27;20047;-66
2022/09/28 03:40:38;;;;;;;19.80;13.27;;;9.30;99.90;;;;;;5153195;27;20034;-66
2022/09/28 03:43:03;;;;;;;22.92;13.63;;;9.30;99.90;;;;;;5152439;27;20034;-67
2022/09/28 03:45:29;;;;;;;21.65;13.73;;;9.30;99.90;;;;;;5154130;27;20486;-66
2022/09/28 03:47:54;;;;;;;20.10;13.50;;;9.30;99.90;;;;;;5154279;27;20508;-66
2022/09/28 03:50:20;;;;;;;20.50;13.15;;;9.30;99.90;;;;;;5154327;27;20056;-66
2022/09/28 03:52:45;;;;;;;24.08;13.18;;;9.30;99.90;;;;;;5152835;27;20136;-66
2022/09/28 03:55:11;;;;;;;25.75;14.75;;;9.30;99.90;;;;;;5153996;27;20144;-66
2022/09/28 03:57:36;;;;;;;22.38;14.35;;;9.30;99.90;;;;;;5152754;27;20627;-66
2022/09/28 04:00:04;;;;;;;22.67;14.05;;;9.30;99.90;;;;;;5154138;27;20053;-66
2022/09/28 04:02:29;;;;;;;24.70;15.70;;;9.30;99.90;;;;;;5154326;27;20030;-65
2022/09/28 04:04:55;;;;;;;24.05;14.50;;;9.30;99.90;;;;;;5153610;27;20080;-65
2022/09/28 04:07:21;;;;;;;24.38;14.13;;;9.30;99.90;;;;;;5153843;27;20042;-66
2022/09/28 04:09:47;;;;;;;24.45;14.10;;;9.30;99.90;;;;;;5154072;27;20118;-65
2022/09/28 04:12:12;;;;;;;26.52;16.02;;;9.30;99.90;;;;;;5153940;27;20510;-66
2022/09/28 04:14:38;;;;;;;25.75;15.68;;;9.30;99.90;;;;;;5152100;27;20035;-66
2022/09/28 04:17:06;;;;;;;27.60;16.27;;;9.30;99.90;;;;;;5153837;27;20463;-66
2022/09/28 04:19:31;;;;;;;26.27;15.52;;;9.30;99.90;;;;;;5153607;27;20041;-65
2022/09/28 04:21:57;;;;;;;30.30;16.92;;;9.30;99.90;;;;;;5153710;27;20038;-65
2022/09/28 04:24:22;;;;;;;30.05;17.17;;;9.30;99.90;;;;;;5153324;27;20039;-65
2022/09/28 04:26:48;;;;;;;30.40;18.00;;;9.30;99.90;;;;;;5153689;27;20062;-65
2022/09/28 04:29:16;;;;;;;30.90;18.35;;;9.30;99.90;;;;;;5153694;27;20509;-65
2022/09/28 04:31:45;;;;;;;30.63;18.20;;;9.30;99.90;;;;;;5153623;27;20073;-65
2022/09/28 04:34:13;;;;;;;30.13;17.98;;;9.30;99.90;;;;;;5153009;27;20562;-65
2022/09/28 04:36:39;;;;;;;31.38;18.90;;;9.30;99.90;;;;;;5153680;27;20050;-65
2022/09/28 04:39:05;;;;;;;38.40;19.70;;;9.30;99.90;;;;;;5153480;27;20070;-65
2022/09/28 04:41:31;;;;;;;34.85;19.73;;;9.30;99.90;;;;;;5153425;27;20085;-65
2022/09/28 04:43:57;;;;;;;32.65;17.55;;;9.30;99.90;;;;;;5151615;27;20072;-65
2022/09/28 04:46:22;;;;;;;28.98;18.27;;;9.30;99.90;;;;;;5153341;27;20070;-66
2022/09/28 04:48:48;;;;;;;29.33;17.52;;;9.30;99.90;;;;;;5153228;27;20499;-65
2022/09/28 04:51:13;;;;;;;33.95;18.30;;;9.30;99.90;;;;;;5153547;27;20117;-65
2022/09/28 04:53:39;;;;;;;28.48;17.23;;;9.30;99.90;;;;;;5153346;27;20122;-65
2022/09/28 04:56:11;;;;;;;28.20;16.48;;;9.30;99.90;;;;;;5156831;27;20033;-65
2022/09/28 04:58:37;;;;;;;30.02;17.75;;;9.30;99.90;;;;;;5157578;27;20522;-65
2022/09/28 05:01:05;;;;;;;24.55;16.33;;;9.30;99.90;;;;;;5157539;27;20038;-66
2022/09/28 05:03:32;;;;;;;26.70;16.58;;;9.30;99.90;;;;;;5157333;27;20038;-65
2022/09/28 05:05:57;;;;;;;29.00;17.13;;;9.20;99.90;;;;;;5157355;27;20043;-66
2022/09/28 05:08:23;;;;;;;25.33;15.07;;;9.20;99.90;;;;;;5157660;27;20478;-66
2022/09/28 05:10:59;;;;;;;24.42;14.93;;;9.20;99.90;;;;;;5157292;27;20030;-65
2022/09/28 05:13:26;;;;;;;23.30;15.20;;;9.10;99.90;;;;;;5157433;27;20070;-66
2022/09/28 05:15:54;;;;;;;23.27;15.10;;;9.20;99.90;;;;;;5156794;27;20078;-65
2022/09/28 05:18:19;;;;;;;26.13;15.73;;;9.10;99.90;;;;;;5157340;27;20490;-66
2022/09/28 05:20:45;;;;;;;25.58;15.60;;;9.20;99.90;;;;;;5155744;27;20051;-66
2022/09/28 05:23:11;;;;;;;22.20;13.70;;;9.20;99.90;;;;;;5156976;27;20669;-65
2022/09/28 05:25:38;;;;;;;22.70;14.23;;;9.20;99.90;;;;;;5156542;27;20087;-65
2022/09/28 05:28:04;;;;;;;22.50;13.85;;;9.20;99.90;;;;;;5155778;27;20069;-65
2022/09/28 05:30:30;;;;;;;25.08;15.15;;;9.20;99.90;;;;;;5156824;27;20038;-66
2022/09/28 05:32:55;;;;;;;21.40;13.43;;;9.10;99.90;;;;;;5157033;27;20390;-66
2022/09/28 05:35:21;;;;;;;23.20;14.25;;;9.20;99.90;;;;;;5156454;27;20057;-66
2022/09/28 05:37:47;;;;;;;25.98;16.15;;;9.10;99.90;;;;;;5156762;27;20039;-65
2022/09/28 05:40:13;;;;;;;25.70;14.70;;;9.20;99.90;;;;;;5154058;27;20621;-65
2022/09/28 05:42:39;;;;;;;25.42;15.20;;;9.10;99.90;;;;;;5153479;27;20486;-65
2022/09/28 05:45:05;;;;;;;21.58;13.80;;;9.10;99.90;;;;;;5153986;27;20042;-65
2022/09/28 05:47:35;;;;;;;27.27;15.23;;;9.10;99.90;;;;;;5156600;27;20121;-65
2022/09/28 05:50:01;;;;;;;22.00;14.30;;;9.10;99.90;;;;;;5156289;27;20091;-65
2022/09/28 05:52:26;;;;;;;24.38;14.27;;;9.10;99.90;;;;;;5135459;27;20031;-65
2022/09/28 05:54:52;;;;;;;19.50;12.93;;;9.10;99.90;;;;;;5116030;27;20460;-65
2022/09/28 05:57:17;;;;;;;17.33;11.27;;;9.10;99.90;;;;;;5134560;27;20114;-65
2022/09/28 05:59:43;;;;;;;23.38;13.32;;;9.10;99.90;;;;;;5135524;27;20126;-65
2022/09/28 06:02:09;;;;;;;21.83;12.90;;;9.10;99.90;;;;;;5134311;27;20039;-65
2022/09/28 06:04:34;;;;;;;23.52;12.32;;;9.10;99.90;;;;;;5133937;27;20059;-65
2022/09/28 06:07:00;;;;;;;35.88;13.70;;;9.10;99.90;;;;;;5134949;27;20593;-66
2022/09/28 06:09:25;;;;;;;23.38;12.57;;;9.00;99.90;;;;;;5135419;27;20035;-66
2022/09/28 06:11:51;;;;;;;23.38;12.45;;;8.90;99.90;;;;;;5137783;27;20119;-65
2022/09/28 06:14:17;;;;;;;19.25;12.77;;;8.90;99.90;;;;;;5135090;27;20096;-65
2022/09/28 06:16:43;;;;;;;23.13;13.70;;;8.90;99.90;;;;;;5138697;27;20128;-65
2022/09/28 06:19:10;;;;;;;23.58;13.85;;;9.00;99.90;;;;;;5156258;27;20046;-66
2022/09/28 06:21:35;;;;;;;27.10;13.00;;;9.00;99.90;;;;;;5154694;27;20544;-65
2022/09/28 06:24:01;;;;;;;19.42;12.55;;;9.00;99.90;;;;;;5155614;27;20050;-65
2022/09/28 06:26:27;;;;;;;18.38;11.02;;;9.10;99.90;;;;;;5156003;27;20042;-65
2022/09/28 06:28:52;;;;;;;19.70;12.73;;;9.10;99.90;;;;;;5154469;27;20034;-65
2022/09/28 06:31:22;;;;;;;33.75;12.18;;;9.10;99.90;;;;;;5156053;27;20035;-65
2022/09/28 06:33:48;;;;;;;20.33;12.25;;;9.10;99.90;;;;;;5155569;27;20050;-65
2022/09/28 06:36:14;;;;;;;30.52;12.20;;;9.10;99.90;;;;;;5155826;27;20070;-65
2022/09/28 06:38:40;;;;;;;18.23;12.43;;;9.00;99.90;;;;;;5155572;27;20035;-64
2022/09/28 06:41:06;;;;;;;18.20;11.52;;;8.90;99.90;;;;;;5155654;27;20038;-65
2022/09/28 06:43:33;;;;;;;20.38;12.20;;;9.00;99.90;;;;;;5154035;27;20042;-65
2022/09/28 06:45:59;;;;;;;21.90;12.40;;;9.00;99.90;;;;;;5154171;27;20486;-65
2022/09/28 06:48:25;;;;;;;20.50;12.25;;;9.00;99.90;;;;;;5155616;27;20039;-65
2022/09/28 06:50:50;;;;;;;19.77;12.05;;;9.10;99.90;;;;;;5155594;27;20038;-65
2022/09/28 06:53:16;;;;;;;18.15;12.02;;;9.10;99.90;;;;;;5155342;27;20440;-65
2022/09/28 06:55:47;;;;;;;22.05;12.27;;;9.20;99.90;;;;;;5155034;27;20043;-66
2022/09/28 06:58:17;;;;;;;18.45;11.40;;;9.20;99.90;;;;;;5153133;27;20050;-65
2022/09/28 07:00:43;;;;;;;27.80;14.93;;;9.20;99.90;;;;;;5143728;27;20484;-65
2022/09/28 07:03:14;;;;;;;23.60;13.80;;;9.20;99.90;;;;;;5143378;27;20042;-66
2022/09/28 07:05:53;;;;;;;21.50;13.52;;;9.10;99.90;;;;;;5143810;27;20042;-65
2022/09/28 07:08:23;;;;;;;23.40;14.23;;;9.20;99.90;;;;;;5143892;27;20049;-65
2022/09/28 07:10:54;;;;;;;26.10;12.45;;;9.20;99.90;;;;;;5147999;27;20136;-65
2022/09/28 07:13:21;;;;;;;20.52;12.32;;;9.30;99.90;;;;;;5154697;27;20043;-65
2022/09/28 07:15:47;;;;;;;25.77;14.57;;;9.30;99.90;;;;;;5154605;27;20491;-65
2022/09/28 07:18:13;;;;;;;24.50;13.88;;;9.30;99.90;;;;;;5153941;27;20038;-66
2022/09/28 07:20:39;;;;;;;31.35;14.65;;;9.30;99.90;;;;;;5153503;27;20039;-67
2022/09/28 07:23:06;;;;;;;24.70;15.05;;;9.30;99.90;;;;;;5146820;27;20043;-66
2022/09/28 07:25:32;;;;;;;27.17;14.93;;;9.30;99.90;;;;;;5133704;27;20045;-65
2022/09/28 07:27:59;;;;;;;24.73;14.00;;;9.40;99.90;;;;;;5134120;27;20119;-65
2022/09/28 07:30:26;;;;;;;21.33;12.75;;;9.40;99.90;;;;;;5134337;27;20042;-68
2022/09/28 07:32:55;;;;;;;19.55;12.70;;;9.40;99.90;;;;;;5148713;27;20077;-65
2022/09/28 07:35:21;;;;;;;19.15;11.55;;;9.20;99.90;;;;;;5152370;27;20038;-65
2022/09/28 07:37:47;;;;;;;20.85;13.43;;;9.20;99.90;;;;;;5154705;27;20072;-65
2022/09/28 07:43:04;;;;;;;19.00;11.65;;;9.40;99.90;;;;;;5154319;27;20038;-65
2022/09/28 07:45:32;;;;;;;20.35;12.00;;;9.40;99.90;;;;;;5153092;27;20035;-65
2022/09/28 07:47:58;;;;;;;16.08;10.63;;;9.50;99.90;;;;;;5154565;27;20272;-65
2022/09/28 07:50:24;;;;;;;16.50;10.98;;;9.50;99.90;;;;;;5154497;27;20035;-65
2022/09/28 07:52:49;;;;;;;17.45;10.23;;;9.40;99.90;;;;;;5154314;27;20118;-65
2022/09/28 07:55:15;;;;;;;18.08;10.95;;;9.30;99.90;;;;;;5153873;27;20030;-65
2022/09/28 07:57:40;;;;;;;17.40;11.80;;;9.40;99.90;;;;;;5154065;27;20482;-65
2022/09/28 08:00:07;;;;;;;19.17;11.32;;;9.50;99.90;;;;;;5154120;27;20598;-65
2022/09/28 08:02:34;;;;;;;20.98;12.00;;;9.50;99.90;;;;;;5154265;27;20076;-65
2022/09/28 08:05:00;;;;;;;20.58;12.02;;;9.40;99.90;;;;;;5153779;27;20035;-65
2022/09/28 08:07:27;;;;;;;17.42;11.93;;;9.40;99.90;;;;;;5152677;27;20498;-65
2022/09/28 08:09:52;;;;;;;17.50;11.73;;;9.50;99.90;;;;;;5152997;27;20049;-65
2022/09/28 08:12:19;;;;;;;15.95;10.25;;;9.60;99.90;;;;;;5153871;27;20082;-65
2022/09/28 08:14:46;;;;;;;14.90;10.18;;;9.60;99.90;;;;;;5153792;27;20201;-65
2022/09/28 08:17:11;;;;;;;17.52;11.68;;;9.60;99.90;;;;;;5153837;27;20483;-65
2022/09/28 08:22:21;;;;;;;17.48;11.82;;;9.60;99.90;;;;;;5143174;27;20043;-65
2022/09/28 08:24:47;;;;;;;18.48;11.38;;;9.60;99.90;;;;;;5147136;27;20400;-64
2022/09/28 08:27:15;;;;;;;17.95;11.30;;;9.60;99.90;;;;;;5153874;27;20042;-65
2022/09/28 08:29:41;;;;;;;18.85;11.05;;;9.70;99.90;;;;;;5153619;27;20113;-65
2022/09/28 08:32:08;;;;;;;15.13;10.80;;;9.80;99.90;;;;;;5153815;27;20027;-65
2022/09/28 08:34:35;;;;;;;15.70;10.60;;;9.80;99.90;;;;;;5153238;27;20414;-67
2022/09/28 08:37:01;;;;;;;15.35;9.88;;;9.70;99.90;;;;;;5153514;27;20495;-67
2022/09/28 08:39:27;;;;;;;17.13;11.45;;;9.90;99.90;;;;;;5152326;27;20117;-67
2022/09/28 08:42:30;;;;;;;16.48;9.43;;;9.90;99.90;;;;;;5153532;27;20113;-66
2022/09/28 08:45:03;;;;;;;15.88;9.85;;;9.80;99.90;;;;;;5152946;27;20047;-66
2022/09/28 08:50:51;;;;;;;12.65;8.40;;;10.00;99.90;;;;;;5153495;27;20039;-67
2022/09/28 08:53:24;;;;;;;15.07;9.32;;;10.10;99.90;;;;;;5153451;27;20405;-67
2022/09/28 08:55:51;;;;;;;15.25;10.38;;;10.10;99.90;;;;;;5152895;27;20402;-67
2022/09/28 08:58:22;;;;;;;15.45;10.15;;;10.20;99.90;;;;;;5153439;27;20042;-66
2022/09/28 09:00:50;;;;;;;15.25;9.02;;;10.10;99.90;;;;;;5153412;27;20042;-67
2022/09/28 09:03:31;;;;;;;14.48;9.45;;;10.10;99.90;;;;;;5153387;27;20118;-67
2022/09/28 09:06:00;;;;;;;12.93;8.27;;;10.20;99.90;;;;;;5152911;27;20035;-67
2022/09/28 09:08:48;;;;;;;19.83;11.07;;;10.20;99.90;;;;;;5151926;27;20042;-68
2022/09/28 09:11:29;;;;;;;17.50;10.15;;;10.10;99.90;;;;;;5152500;27;20398;-69
2022/09/28 09:14:16;;;;;;;17.75;10.43;;;10.10;99.90;;;;;;5148143;27;20070;-67
2022/09/28 09:16:55;;;;;;;15.35;9.35;;;10.20;99.90;;;;;;5134242;27;20039;-67
2022/09/28 09:19:27;;;;;;;16.33;9.68;;;10.30;99.90;;;;;;5132194;27;20148;-68
2022/09/28 09:22:00;;;;;;;16.92;9.57;;;10.40;99.90;;;;;;5132156;27;20055;-68
2022/09/28 09:24:49;;;;;;;13.45;9.00;;;10.60;99.90;;;;;;5143075;27;20054;-67
2022/09/28 09:27:50;;;;;;;16.20;9.55;;;10.60;99.90;;;;;;5151310;27;20076;-67
2022/09/28 09:30:20;;;;;;;19.17;9.95;;;10.70;99.90;;;;;;5152787;27;20546;-67
2022/09/28 09:33:29;;;;;;;16.38;10.05;;;10.80;99.90;;;;;;5136574;27;20112;-67
2022/09/28 09:36:03;;;;;;;18.63;10.95;;;10.90;99.90;;;;;;5131701;27;20049;-68
2022/09/28 09:38:38;;;;;;;19.25;10.25;;;11.00;99.90;;;;;;5134367;27;20034;-66
2022/09/28 09:41:21;;;;;;;16.73;10.48;;;11.10;99.90;;;;;;5146434;27;20038;-67
2022/09/28 09:43:58;;;;;;;18.33;10.60;;;11.20;99.90;;;;;;5134140;27;20074;-67
2022/09/28 09:46:48;;;;;;;18.60;11.20;;;11.20;99.90;;;;;;5134424;27;20035;-66
2022/09/28 09:49:22;;;;;;;19.90;11.05;;;11.30;99.90;;;;;;5121405;27;20030;-68
2022/09/28 09:51:58;;;;;;;18.75;10.95;;;11.20;99.90;;;;;;5155420;27;20363;-67
2022/09/28 09:54:38;;;;;;;17.67;11.05;;;11.30;99.90;;;;;;5154778;27;20524;-68
2022/09/28 09:57:18;;;;;;;21.40;12.43;;;11.30;99.90;;;;;;5154820;27;20031;-68
2022/09/28 09:59:46;;;;;;;19.65;12.20;;;11.30;99.90;;;;;;5156148;27;20042;-67
2022/09/28 10:02:24;;;;;;;20.73;12.20;;;11.40;99.90;;;;;;5137534;27;20038;-67
2022/09/28 10:04:54;;;;;;;20.13;11.68;;;11.50;99.90;;;;;;5154319;27;20171;-68
2022/09/28 10:07:32;;;;;;;17.42;10.90;;;11.60;99.90;;;;;;5156015;27;20045;-67
2022/09/28 10:10:01;;;;;;;21.15;10.30;;;11.60;99.90;;;;;;5154735;27;20159;-67
2022/09/28 10:12:28;;;;;;;16.80;10.63;;;11.70;99.90;;;;;;5155795;27;20407;-67
2022/09/28 10:14:54;;;;;;;20.10;11.60;;;11.70;99.90;;;;;;5155605;27;20042;-66
2022/09/28 10:17:26;;;;;;;21.48;11.00;;;11.70;99.90;;;;;;5155618;27;20398;-68
2022/09/28 10:19:53;;;;;;;16.13;11.10;;;11.80;99.90;;;;;;5154393;27;20048;-67
2022/09/28 10:22:22;;;;;;;17.35;10.73;;;11.90;99.90;;;;;;5155760;27;20046;-66
2022/09/28 10:24:53;;;;;;;13.48;9.00;;;11.90;99.90;;;;;;5155322;27;20034;-67
2022/09/28 10:27:24;;;;;;;12.85;8.98;;;12.10;99.90;;;;;;5155433;27;20483;-67
2022/09/28 10:29:53;;;;;;;17.15;9.57;;;12.20;99.90;;;;;;5155382;27;20862;-67
2022/09/28 10:32:27;;;;;;;16.38;10.30;;;12.20;99.90;;;;;;5155503;27;20038;-67
2022/09/28 10:35:09;;;;;;;16.45;10.75;;;12.20;99.90;;;;;;5155462;27;20418;-66
2022/09/28 10:37:44;;;;;;;13.45;8.60;;;12.20;99.90;;;;;;5155694;27;20088;-66
2022/09/28 10:40:28;;;;;;;14.27;9.35;;;12.30;99.90;;;;;;5154326;27;20147;-66
2022/09/28 10:43:03;;;;;;;15.88;9.50;;;12.40;99.90;;;;;;5154414;27;20043;-66
2022/09/28 10:45:35;;;;;;;14.13;9.02;;;12.60;99.90;;;;;;5155190;27;20043;-64
2022/09/28 10:48:04;;;;;;;14.82;8.70;;;12.60;99.90;;;;;;5144218;27;20510;-64
2022/09/28 10:50:30;;;;;;;12.35;8.90;;;12.60;99.90;;;;;;5155453;27;20439;-64
2022/09/28 10:53:19;;;;;;;13.43;8.45;;;12.60;99.90;;;;;;5154432;27;20065;-64
2022/09/28 10:55:58;;;;;;;11.93;7.90;;;12.60;99.90;;;;;;5153748;27;20087;-65
2022/09/28 10:58:27;;;;;;;12.63;8.50;;;12.60;99.90;;;;;;5155329;27;20030;-64
2022/09/28 11:01:00;;;;;;;11.68;8.40;;;12.60;99.90;;;;;;5155151;27;20506;-64
2022/09/28 11:03:28;;;;;;;16.42;8.50;;;12.60;99.90;;;;;;5155157;27;20046;-64
2022/09/28 11:06:00;;;;;;;13.77;7.50;;;12.70;99.90;;;;;;5154521;27;20553;-64
2022/09/28 11:08:48;;;;;;;;;;;12.70;99.90;;;;;;5155770;27;20066;-64
2022/09/28 11:11:15;;;;;;;13.93;7.30;;;12.70;99.90;;;;;;5147248;27;20365;-64
2022/09/28 11:13:53;;;;;;;9.82;7.30;;;12.70;99.90;;;;;;5144835;27;20039;-64
2022/09/28 11:16:25;;;;;;;13.45;7.35;;;12.70;99.90;;;;;;5132384;27;20043;-64
2022/09/28 11:18:51;;;;;;;12.38;7.28;;;12.80;99.90;;;;;;5132905;27;20130;-64
2022/09/28 11:21:25;;;;;;;10.60;7.32;;;12.90;99.90;;;;;;5148578;27;20118;-65
2022/09/28 11:24:00;;;;;;;9.88;7.05;;;12.90;99.90;;;;;;5135720;27;20039;-65
2022/09/28 11:26:27;;;;;;;9.95;6.55;;;13.00;99.90;;;;;;5154794;27;20087;-65
2022/09/28 11:28:53;;;;;;;10.00;5.60;;;13.00;99.90;;;;;;5154828;27;20031;-66
2022/09/28 11:31:27;;;;;;;8.88;5.18;;;13.00;99.90;;;;;;5154659;27;20042;-66
2022/09/28 11:34:11;;;;;;;9.70;5.35;;;13.10;99.90;;;;;;5154562;27;20038;-66
2022/09/28 11:37:08;;;;;;;6.07;4.13;;;13.10;99.90;;;;;;5154613;27;20041;-66
2022/09/28 11:39:41;;;;;;;6.68;3.50;;;13.20;99.90;;;;;;5154419;27;20034;-65
2022/09/28 11:42:31;;;;;;;5.65;3.15;;;13.20;99.90;;;;;;5154785;27;20398;-66
2022/09/28 11:45:36;;;;;;;5.22;3.47;;;13.20;99.90;;;;;;5154192;27;20046;-65
2022/09/28 11:48:08;;;;;;;3.15;2.60;;;13.20;99.90;;;;;;5154303;27;20125;-67
2022/09/28 11:50:46;;;;;;;4.80;2.20;;;13.20;99.90;;;;;;5154604;27;20043;-66
2022/09/28 11:53:24;;;;;;;4.55;2.28;;;13.20;99.90;;;;;;5154407;27;20087;-67
2022/09/28 11:56:01;;;;;;;3.17;2.30;;;13.20;99.90;;;;;;5152875;27;20042;-68
2022/09/28 11:58:34;;;;;;;3.58;2.03;;;13.40;99.90;;;;;;5152912;27;20149;-69
2022/09/28 12:01:37;;;;;;;2.20;1.98;;;13.40;99.90;;;;;;5153145;27;20034;-69
2022/09/28 12:04:32;;;;;;;2.88;2.00;;;13.20;99.90;;;;;;5153289;27;20045;-67
2022/09/28 12:07:26;;;;;;;2.22;1.88;;;13.20;99.90;;;;;;5144685;27;20095;-66
2022/09/28 12:09:57;;;;;;;4.95;2.20;;;13.20;99.90;;;;;;5152581;27;20154;-66
2022/09/28 12:12:30;;;;;;;2.55;1.90;;;13.20;99.90;;;;;;5153973;27;20043;-66
2022/09/28 12:15:03;;;;;;;2.58;1.83;;;13.30;99.90;;;;;;5153289;27;20494;-67
2022/09/28 12:17:43;;;;;;;4.38;2.10;;;13.30;99.90;;;;;;5153921;27;20050;-66
2022/09/28 12:20:44;;;;;;;1.63;1.38;;;13.50;99.90;;;;;;5153988;27;20376;-67
2022/09/28 12:23:32;;;;;;;2.85;1.80;;;13.50;99.90;;;;;;5149313;27;20513;-66
2022/09/28 12:26:01;;;;;;;2.92;1.65;;;13.60;99.90;;;;;;5153607;27;20055;-66
2022/09/28 12:28:42;;;;;;;4.13;1.98;;;13.60;99.90;;;;;;5153759;27;20039;-66
2022/09/28 12:31:35;;;;;;;1.60;1.50;;;13.60;99.90;;;;;;5153701;27;20050;-67
2022/09/28 12:34:01;;;;;;;1.35;1.10;;;13.70;99.90;;;;;;5110685;27;20081;-66
2022/09/28 12:36:32;;;;;;;4.20;1.40;;;13.90;99.90;;;;;;5153573;27;20046;-66
2022/09/28 12:39:21;;;;;;;1.25;1.15;;;13.80;99.90;;;;;;5152152;27;20038;-66
2022/09/28 12:42:26;;;;;;;1.85;1.15;;;13.80;99.90;;;;;;5153566;27;20031;-66
2022/09/28 12:45:30;;;;;;;1.58;1.35;;;13.80;99.90;;;;;;5134437;27;20046;-66
2022/09/28 12:48:07;;;;;;;2.25;1.17;;;13.90;99.90;;;;;;5079127;27;20097;-66
2022/09/28 12:50:49;;;;;;;3.35;1.42;;;14.00;99.90;;;;;;5153631;27;20371;-67
2022/09/28 12:53:29;;;;;;;2.28;1.60;;;14.00;99.90;;;;;;5153565;27;20034;-66
2022/09/28 12:56:10;;;;;;;4.93;1.27;;;14.00;99.90;;;;;;5153277;27;20038;-66
2022/09/28 12:59:01;;;;;;;2.50;1.15;;;13.90;99.90;;;;;;5153217;27;20471;-66
2022/09/28 13:01:39;;;;;;;1.60;1.02;;;13.90;99.90;;;;;;5153479;27;20046;-66
2022/09/28 13:04:16;;;;;;;1.50;1.30;;;13.90;99.90;;;;;;5152971;27;20039;-66
2022/09/28 13:07:20;;;;;;;2.65;1.40;;;13.90;99.90;;;;;;5153111;27;20038;-67
2022/09/28 13:09:51;;;;;;;1.63;1.25;;;13.90;99.90;;;;;;5110345;27;20084;-66
2022/09/28 13:12:42;;;;;;;2.25;1.00;;;13.90;99.90;;;;;;5153282;27;20043;-66
2022/09/28 13:15:26;;;;;;;3.33;1.30;;;13.90;99.90;;;;;;5152639;27;20046;-66